sensor_id;sensor_type;location;lat;lon;timestamp;temperature;humidity
37528;DHT22;23372;52.050;4.810;2023-05-10T00:00:13;12.70;99.90
37528;DHT22;23372;52.050;4.810;2023-05-10T00:02:39;12.60;99.90
37528;DHT22;23372;52.050;4.810;2023-05-10T00:05:06;12.50;99.90
37528;DHT22;23372;52.050;4.810;2023-05-10T00:07:32;12.50;99.90
37528;DHT22;23372;52.050;4.810;2023-05-10T00:09:57;12.60;99.90
37528;DHT22;23372;52.050;4.810;2023-05-10T00:12:23;12.50;99.90
37528;DHT22;23372;52.050;4.810;2023-05-10T00:14:49;12.40;99.90
37528;DHT22;23372;52.050;4.810;2023-05-10T00:17:14;12.40;99.90
37528;DHT22;23372;52.050;4.810;2023-05-10T00:19:40;12.40;99.90
37528;DHT22;23372;52.050;4.810;2023-05-10T00:22:05;12.30;99.90
37528;DHT22;23372;52.050;4.810;2023-05-10T00:24:31;12.30;99.90
37528;DHT22;23372;52.050;4.810;2023-05-10T00:26:57;12.20;99.90
37528;DHT22;23372;52.050;4.810;2023-05-10T00:29:22;12.30;99.90
37528;DHT22;23372;52.050;4.810;2023-05-10T00:31:48;12.20;99.90
37528;DHT22;23372;52.050;4.810;2023-05-10T00:34:13;12.20;99.90
37528;DHT22;23372;52.050;4.810;2023-05-10T00:36:39;12.20;99.90
37528;DHT22;23372;52.050;4.810;2023-05-10T00:39:04;12.20;99.90
37528;DHT22;23372;52.050;4.810;2023-05-10T00:41:30;12.20;99.90
37528;DHT22;23372;52.050;4.810;2023-05-10T00:43:59;12.30;99.90
37528;DHT22;23372;52.050;4.810;2023-05-10T00:46:25;12.30;99.90
37528;DHT22;23372;52.050;4.810;2023-05-10T00:48:51;12.40;99.90
37528;DHT22;23372;52.050;4.810;2023-05-10T00:51:17;12.40;99.90
37528;DHT22;23372;52.050;4.810;2023-05-10T00:53:44;12.50;99.90
37528;DHT22;23372;52.050;4.810;2023-05-10T00:56:10;12.50;99.90
37528;DHT22;23372;52.050;4.810;2023-05-10T00:58:36;12.60;99.90
37528;DHT22;23372;52.050;4.810;2023-05-10T01:01:02;12.60;99.90
37528;DHT22;23372;52.050;4.810;2023-05-10T01:03:28;12.60;99.90
37528;DHT22;23372;52.050;4.810;2023-05-10T01:05:54;12.70;99.90
37528;DHT22;23372;52.050;4.810;2023-05-10T01:08:20;12.70;99.90
37528;DHT22;23372;52.050;4.810;2023-05-10T01:10:46;12.60;99.90
37528;DHT22;23372;52.050;4.810;2023-05-10T01:13:39;12.60;99.90
37528;DHT22;23372;52.050;4.810;2023-05-10T01:16:04;12.50;99.90
37528;DHT22;23372;52.050;4.810;2023-05-10T01:18:35;12.40;99.90
37528;DHT22;23372;52.050;4.810;2023-05-10T01:24:25;12.40;99.90
37528;DHT22;23372;52.050;4.810;2023-05-10T01:27:34;12.30;99.90
37528;DHT22;23372;52.050;4.810;2023-05-10T01:33:18;12.40;99.90
37528;DHT22;23372;52.050;4.810;2023-05-10T01:35:51;12.40;99.90
37528;DHT22;23372;52.050;4.810;2023-05-10T01:39:01;12.50;99.90
37528;DHT22;23372;52.050;4.810;2023-05-10T01:41:41;12.60;99.90
37528;DHT22;23372;52.050;4.810;2023-05-10T01:44:17;12.60;99.90
37528;DHT22;23372;52.050;4.810;2023-05-10T01:46:46;12.70;99.90
37528;DHT22;23372;52.050;4.810;2023-05-10T01:49:21;12.70;99.90
37528;DHT22;23372;52.050;4.810;2023-05-10T01:51:51;12.80;99.90
37528;DHT22;23372;52.050;4.810;2023-05-10T01:54:20;12.80;99.90
37528;DHT22;23372;52.050;4.810;2023-05-10T01:56:55;12.80;99.90
37528;DHT22;23372;52.050;4.810;2023-05-10T01:59:21;12.90;99.90
37528;DHT22;23372;52.050;4.810;2023-05-10T02:01:48;12.90;99.90
37528;DHT22;23372;52.050;4.810;2023-05-10T02:04:16;12.90;99.90
37528;DHT22;23372;52.050;4.810;2023-05-10T02:06:43;12.90;99.90
37528;DHT22;23372;52.050;4.810;2023-05-10T02:09:10;12.90;99.90
37528;DHT22;23372;52.050;4.810;2023-05-10T02:11:41;12.90;99.90
37528;DHT22;23372;52.050;4.810;2023-05-10T02:14:09;12.80;99.90
37528;DHT22;23372;52.050;4.810;2023-05-10T02:16:38;12.90;99.90
37528;DHT22;23372;52.050;4.810;2023-05-10T02:19:05;12.80;99.90
37528;DHT22;23372;52.050;4.810;2023-05-10T02:21:31;12.80;99.90
37528;DHT22;23372;52.050;4.810;2023-05-10T02:23:59;12.90;99.90
37528;DHT22;23372;52.050;4.810;2023-05-10T02:26:26;12.90;99.90
37528;DHT22;23372;52.050;4.810;2023-05-10T02:28:53;12.90;99.90
37528;DHT22;23372;52.050;4.810;2023-05-10T02:31:20;12.90;99.90
37528;DHT22;23372;52.050;4.810;2023-05-10T02:33:48;12.90;99.90
37528;DHT22;23372;52.050;4.810;2023-05-10T02:36:15;12.90;99.90
37528;DHT22;23372;52.050;4.810;2023-05-10T02:38:41;12.90;99.90
37528;DHT22;23372;52.050;4.810;2023-05-10T02:41:09;13.00;99.90
37528;DHT22;23372;52.050;4.810;2023-05-10T02:43:36;12.90;99.90
37528;DHT22;23372;52.050;4.810;2023-05-10T02:46:03;13.00;99.90
37528;DHT22;23372;52.050;4.810;2023-05-10T02:48:29;13.00;99.90
37528;DHT22;23372;52.050;4.810;2023-05-10T02:50:56;13.10;99.90
37528;DHT22;23372;52.050;4.810;2023-05-10T02:53:31;13.10;99.90
37528;DHT22;23372;52.050;4.810;2023-05-10T02:55:59;13.00;99.90
37528;DHT22;23372;52.050;4.810;2023-05-10T02:58:26;13.00;99.90
37528;DHT22;23372;52.050;4.810;2023-05-10T03:00:51;13.10;99.90
37528;DHT22;23372;52.050;4.810;2023-05-10T03:03:17;13.10;99.90
37528;DHT22;23372;52.050;4.810;2023-05-10T03:05:43;13.10;99.90
37528;DHT22;23372;52.050;4.810;2023-05-10T03:08:08;13.10;99.90
37528;DHT22;23372;52.050;4.810;2023-05-10T03:10:41;13.00;99.90
37528;DHT22;23372;52.050;4.810;2023-05-10T03:13:31;13.10;99.90
37528;DHT22;23372;52.050;4.810;2023-05-10T03:16:27;13.10;99.90
37528;DHT22;23372;52.050;4.810;2023-05-10T03:19:01;13.00;99.90
37528;DHT22;23372;52.050;4.810;2023-05-10T03:21:29;13.00;99.90
37528;DHT22;23372;52.050;4.810;2023-05-10T03:24:22;13.10;99.90
37528;DHT22;23372;52.050;4.810;2023-05-10T03:26:49;13.10;99.90
37528;DHT22;23372;52.050;4.810;2023-05-10T03:29:16;13.10;99.90
37528;DHT22;23372;52.050;4.810;2023-05-10T03:31:42;13.10;99.90
37528;DHT22;23372;52.050;4.810;2023-05-10T03:34:08;13.10;99.90
37528;DHT22;23372;52.050;4.810;2023-05-10T03:36:33;13.10;99.90
37528;DHT22;23372;52.050;4.810;2023-05-10T03:38:59;13.00;99.90
37528;DHT22;23372;52.050;4.810;2023-05-10T03:41:25;13.00;99.90
37528;DHT22;23372;52.050;4.810;2023-05-10T03:43:51;13.00;99.90
37528;DHT22;23372;52.050;4.810;2023-05-10T03:46:17;13.00;99.90
37528;DHT22;23372;52.050;4.810;2023-05-10T03:48:42;13.10;99.90
37528;DHT22;23372;52.050;4.810;2023-05-10T03:51:08;13.00;99.90
37528;DHT22;23372;52.050;4.810;2023-05-10T03:53:34;12.90;99.90
37528;DHT22;23372;52.050;4.810;2023-05-10T03:55:59;13.00;99.90
37528;DHT22;23372;52.050;4.810;2023-05-10T03:58:25;13.00;99.90
37528;DHT22;23372;52.050;4.810;2023-05-10T04:00:51;13.00;99.90
37528;DHT22;23372;52.050;4.810;2023-05-10T04:03:17;13.00;99.90
37528;DHT22;23372;52.050;4.810;2023-05-10T04:05:42;13.00;99.90
37528;DHT22;23372;52.050;4.810;2023-05-10T04:08:08;13.00;99.90
37528;DHT22;23372;52.050;4.810;2023-05-10T04:10:34;13.00;99.90
37528;DHT22;23372;52.050;4.810;2023-05-10T04:12:59;13.10;99.90
37528;DHT22;23372;52.050;4.810;2023-05-10T04:15:25;13.00;99.90
37528;DHT22;23372;52.050;4.810;2023-05-10T04:17:50;13.00;99.90
37528;DHT22;23372;52.050;4.810;2023-05-10T04:20:16;13.00;99.90
37528;DHT22;23372;52.050;4.810;2023-05-10T04:22:42;12.90;99.90
37528;DHT22;23372;52.050;4.810;2023-05-10T04:25:08;13.00;99.90
37528;DHT22;23372;52.050;4.810;2023-05-10T04:27:34;12.90;99.90
37528;DHT22;23372;52.050;4.810;2023-05-10T04:29:59;13.00;99.90
37528;DHT22;23372;52.050;4.810;2023-05-10T04:32:25;13.00;99.90
37528;DHT22;23372;52.050;4.810;2023-05-10T04:34:51;13.00;99.90
37528;DHT22;23372;52.050;4.810;2023-05-10T04:37:17;13.00;99.90
37528;DHT22;23372;52.050;4.810;2023-05-10T04:39:43;13.00;99.90
37528;DHT22;23372;52.050;4.810;2023-05-10T04:42:09;13.00;99.90
37528;DHT22;23372;52.050;4.810;2023-05-10T04:44:34;13.00;99.90
37528;DHT22;23372;52.050;4.810;2023-05-10T04:47:00;13.00;99.90
37528;DHT22;23372;52.050;4.810;2023-05-10T04:49:27;13.00;99.90
37528;DHT22;23372;52.050;4.810;2023-05-10T04:51:53;13.00;99.90
37528;DHT22;23372;52.050;4.810;2023-05-10T04:54:19;12.90;99.90
37528;DHT22;23372;52.050;4.810;2023-05-10T04:56:44;12.90;99.90
37528;DHT22;23372;52.050;4.810;2023-05-10T04:59:10;12.90;99.90
37528;DHT22;23372;52.050;4.810;2023-05-10T05:01:35;12.80;99.90
37528;DHT22;23372;52.050;4.810;2023-05-10T05:04:01;12.80;99.90
37528;DHT22;23372;52.050;4.810;2023-05-10T05:06:27;12.80;99.90
37528;DHT22;23372;52.050;4.810;2023-05-10T05:08:52;12.80;99.90
37528;DHT22;23372;52.050;4.810;2023-05-10T05:11:18;12.70;99.90
37528;DHT22;23372;52.050;4.810;2023-05-10T05:13:44;12.70;99.90
37528;DHT22;23372;52.050;4.810;2023-05-10T05:16:10;12.80;99.90
37528;DHT22;23372;52.050;4.810;2023-05-10T05:18:36;12.80;99.90
37528;DHT22;23372;52.050;4.810;2023-05-10T05:21:02;12.80;99.90
37528;DHT22;23372;52.050;4.810;2023-05-10T05:23:27;12.80;99.90
37528;DHT22;23372;52.050;4.810;2023-05-10T05:25:53;12.80;99.90
37528;DHT22;23372;52.050;4.810;2023-05-10T05:28:19;12.90;99.90
37528;DHT22;23372;52.050;4.810;2023-05-10T05:30:45;12.90;99.90
37528;DHT22;23372;52.050;4.810;2023-05-10T05:33:11;13.00;99.90
37528;DHT22;23372;52.050;4.810;2023-05-10T05:35:38;13.00;99.90
37528;DHT22;23372;52.050;4.810;2023-05-10T05:38:03;13.00;99.90
37528;DHT22;23372;52.050;4.810;2023-05-10T05:40:29;13.10;99.90
37528;DHT22;23372;52.050;4.810;2023-05-10T05:42:55;13.20;99.90
37528;DHT22;23372;52.050;4.810;2023-05-10T05:45:20;13.20;99.90
37528;DHT22;23372;52.050;4.810;2023-05-10T05:47:46;13.20;99.90
37528;DHT22;23372;52.050;4.810;2023-05-10T05:50:12;13.20;99.90
37528;DHT22;23372;52.050;4.810;2023-05-10T05:52:38;13.20;99.90
37528;DHT22;23372;52.050;4.810;2023-05-10T05:55:03;13.20;99.90
37528;DHT22;23372;52.050;4.810;2023-05-10T05:57:29;13.20;99.90
37528;DHT22;23372;52.050;4.810;2023-05-10T05:59:55;13.20;99.90
37528;DHT22;23372;52.050;4.810;2023-05-10T06:02:21;13.10;99.90
37528;DHT22;23372;52.050;4.810;2023-05-10T06:04:46;13.10;99.90
37528;DHT22;23372;52.050;4.810;2023-05-10T06:07:12;13.10;99.90
37528;DHT22;23372;52.050;4.810;2023-05-10T06:09:38;13.10;99.90
37528;DHT22;23372;52.050;4.810;2023-05-10T06:12:03;13.00;99.90
37528;DHT22;23372;52.050;4.810;2023-05-10T06:14:29;13.00;99.90
37528;DHT22;23372;52.050;4.810;2023-05-10T06:16:54;13.00;99.90
37528;DHT22;23372;52.050;4.810;2023-05-10T06:19:20;13.10;99.90
37528;DHT22;23372;52.050;4.810;2023-05-10T06:21:46;13.30;99.90
37528;DHT22;23372;52.050;4.810;2023-05-10T06:24:11;13.30;99.90
37528;DHT22;23372;52.050;4.810;2023-05-10T06:26:37;13.40;99.90
37528;DHT22;23372;52.050;4.810;2023-05-10T06:29:02;13.70;99.90
37528;DHT22;23372;52.050;4.810;2023-05-10T06:31:28;14.00;99.90
37528;DHT22;23372;52.050;4.810;2023-05-10T06:33:53;14.60;99.90
37528;DHT22;23372;52.050;4.810;2023-05-10T06:36:19;14.70;99.90
37528;DHT22;23372;52.050;4.810;2023-05-10T06:38:44;14.70;99.90
37528;DHT22;23372;52.050;4.810;2023-05-10T06:41:10;14.60;99.90
37528;DHT22;23372;52.050;4.810;2023-05-10T06:43:36;14.50;99.90
37528;DHT22;23372;52.050;4.810;2023-05-10T06:46:05;14.40;99.90
37528;DHT22;23372;52.050;4.810;2023-05-10T06:48:30;14.40;99.90
37528;DHT22;23372;52.050;4.810;2023-05-10T06:50:56;14.20;99.90
37528;DHT22;23372;52.050;4.810;2023-05-10T06:53:21;14.10;99.90
37528;DHT22;23372;52.050;4.810;2023-05-10T06:55:49;14.10;99.90
37528;DHT22;23372;52.050;4.810;2023-05-10T06:58:15;13.90;99.90
37528;DHT22;23372;52.050;4.810;2023-05-10T07:00:40;13.90;99.90
37528;DHT22;23372;52.050;4.810;2023-05-10T07:03:09;13.90;99.90
37528;DHT22;23372;52.050;4.810;2023-05-10T07:05:35;13.90;99.90
37528;DHT22;23372;52.050;4.810;2023-05-10T07:08:00;13.90;99.90
37528;DHT22;23372;52.050;4.810;2023-05-10T07:10:28;14.10;99.90
37528;DHT22;23372;52.050;4.810;2023-05-10T07:12:54;14.20;99.90
37528;DHT22;23372;52.050;4.810;2023-05-10T07:15:19;14.30;99.90
37528;DHT22;23372;52.050;4.810;2023-05-10T07:17:45;14.60;99.90
37528;DHT22;23372;52.050;4.810;2023-05-10T07:20:11;14.90;99.90
37528;DHT22;23372;52.050;4.810;2023-05-10T07:22:37;15.30;99.90
37528;DHT22;23372;52.050;4.810;2023-05-10T07:25:02;15.70;99.90
37528;DHT22;23372;52.050;4.810;2023-05-10T07:27:28;15.90;99.90
37528;DHT22;23372;52.050;4.810;2023-05-10T07:29:53;15.90;99.90
37528;DHT22;23372;52.050;4.810;2023-05-10T07:32:20;15.80;99.90
37528;DHT22;23372;52.050;4.810;2023-05-10T07:34:45;15.40;99.90
37528;DHT22;23372;52.050;4.810;2023-05-10T07:37:12;15.30;99.90
37528;DHT22;23372;52.050;4.810;2023-05-10T07:39:38;15.20;99.90
37528;DHT22;23372;52.050;4.810;2023-05-10T07:42:03;15.00;99.90
37528;DHT22;23372;52.050;4.810;2023-05-10T07:44:29;14.90;99.90
37528;DHT22;23372;52.050;4.810;2023-05-10T07:46:55;14.70;99.90
37528;DHT22;23372;52.050;4.810;2023-05-10T07:49:21;14.70;99.90
37528;DHT22;23372;52.050;4.810;2023-05-10T07:51:46;14.70;99.90
37528;DHT22;23372;52.050;4.810;2023-05-10T07:54:13;14.70;99.90
37528;DHT22;23372;52.050;4.810;2023-05-10T07:56:39;14.90;99.90
37528;DHT22;23372;52.050;4.810;2023-05-10T07:59:05;14.90;99.90
37528;DHT22;23372;52.050;4.810;2023-05-10T08:01:33;14.90;99.90
37528;DHT22;23372;52.050;4.810;2023-05-10T08:03:59;14.80;99.90
37528;DHT22;23372;52.050;4.810;2023-05-10T08:06:25;14.80;99.90
37528;DHT22;23372;52.050;4.810;2023-05-10T08:08:55;14.70;99.90
37528;DHT22;23372;52.050;4.810;2023-05-10T08:11:21;14.80;99.90
37528;DHT22;23372;52.050;4.810;2023-05-10T08:13:47;15.00;99.90
37528;DHT22;23372;52.050;4.810;2023-05-10T08:16:13;15.20;99.90
37528;DHT22;23372;52.050;4.810;2023-05-10T08:18:39;15.40;99.90
37528;DHT22;23372;52.050;4.810;2023-05-10T08:21:05;15.50;99.90
37528;DHT22;23372;52.050;4.810;2023-05-10T08:23:31;15.50;99.90
37528;DHT22;23372;52.050;4.810;2023-05-10T08:25:57;15.50;99.90
37528;DHT22;23372;52.050;4.810;2023-05-10T08:28:22;15.40;99.90
37528;DHT22;23372;52.050;4.810;2023-05-10T08:30:49;15.30;99.90
37528;DHT22;23372;52.050;4.810;2023-05-10T08:33:19;15.20;99.90
37528;DHT22;23372;52.050;4.810;2023-05-10T08:35:45;15.00;99.90
37528;DHT22;23372;52.050;4.810;2023-05-10T08:38:10;14.90;99.90
37528;DHT22;23372;52.050;4.810;2023-05-10T08:40:43;14.90;99.90
37528;DHT22;23372;52.050;4.810;2023-05-10T08:43:11;14.70;99.90
37528;DHT22;23372;52.050;4.810;2023-05-10T08:45:39;14.60;99.90
37528;DHT22;23372;52.050;4.810;2023-05-10T08:48:06;14.70;99.90
37528;DHT22;23372;52.050;4.810;2023-05-10T08:50:35;14.70;99.90
37528;DHT22;23372;52.050;4.810;2023-05-10T08:53:06;14.80;99.90
37528;DHT22;23372;52.050;4.810;2023-05-10T08:55:37;14.90;99.90
37528;DHT22;23372;52.050;4.810;2023-05-10T08:58:06;14.80;99.90
37528;DHT22;23372;52.050;4.810;2023-05-10T09:00:32;14.80;99.90
37528;DHT22;23372;52.050;4.810;2023-05-10T09:02:59;14.90;99.90
37528;DHT22;23372;52.050;4.810;2023-05-10T09:05:25;14.80;99.90
37528;DHT22;23372;52.050;4.810;2023-05-10T09:07:50;14.80;99.90
37528;DHT22;23372;52.050;4.810;2023-05-10T09:10:17;14.80;99.90
37528;DHT22;23372;52.050;4.810;2023-05-10T09:12:44;14.70;99.90
37528;DHT22;23372;52.050;4.810;2023-05-10T09:15:10;14.70;99.90
37528;DHT22;23372;52.050;4.810;2023-05-10T09:17:38;14.70;99.90
37528;DHT22;23372;52.050;4.810;2023-05-10T09:20:04;14.70;99.90
37528;DHT22;23372;52.050;4.810;2023-05-10T09:22:31;14.70;99.90
37528;DHT22;23372;52.050;4.810;2023-05-10T09:25:16;14.70;99.90
37528;DHT22;23372;52.050;4.810;2023-05-10T09:27:45;14.70;99.90
37528;DHT22;23372;52.050;4.810;2023-05-10T09:30:23;14.70;99.90
37528;DHT22;23372;52.050;4.810;2023-05-10T09:32:49;14.80;99.90
37528;DHT22;23372;52.050;4.810;2023-05-10T09:35:21;14.90;99.90
37528;DHT22;23372;52.050;4.810;2023-05-10T09:37:50;14.90;99.90
37528;DHT22;23372;52.050;4.810;2023-05-10T09:40:23;15.00;99.90
37528;DHT22;23372;52.050;4.810;2023-05-10T09:45:25;15.10;99.90
37528;DHT22;23372;52.050;4.810;2023-05-10T09:47:51;15.20;99.90
37528;DHT22;23372;52.050;4.810;2023-05-10T09:50:17;15.00;99.90
37528;DHT22;23372;52.050;4.810;2023-05-10T09:52:53;14.90;99.90
37528;DHT22;23372;52.050;4.810;2023-05-10T09:55:37;15.10;99.90
37528;DHT22;23372;52.050;4.810;2023-05-10T09:58:03;15.40;99.90
37528;DHT22;23372;52.050;4.810;2023-05-10T10:00:38;15.60;99.90
37528;DHT22;23372;52.050;4.810;2023-05-10T10:03:04;16.00;99.90
37528;DHT22;23372;52.050;4.810;2023-05-10T10:05:32;16.40;99.90
37528;DHT22;23372;52.050;4.810;2023-05-10T10:07:58;16.60;99.90
37528;DHT22;23372;52.050;4.810;2023-05-10T10:10:25;16.90;99.90
37528;DHT22;23372;52.050;4.810;2023-05-10T10:12:51;16.70;99.90
37528;DHT22;23372;52.050;4.810;2023-05-10T10:15:17;16.70;99.90
37528;DHT22;23372;52.050;4.810;2023-05-10T10:17:43;16.70;99.90
37528;DHT22;23372;52.050;4.810;2023-05-10T10:20:09;16.70;99.90
37528;DHT22;23372;52.050;4.810;2023-05-10T10:22:35;17.00;99.90
37528;DHT22;23372;52.050;4.810;2023-05-10T10:25:02;17.40;99.90
37528;DHT22;23372;52.050;4.810;2023-05-10T10:35:32;19.00;99.90
37528;DHT22;23372;52.050;4.810;2023-05-10T10:37:58;18.80;99.90
37528;DHT22;23372;52.050;4.810;2023-05-10T10:40:30;18.70;99.90
37528;DHT22;23372;52.050;4.810;2023-05-10T10:42:56;18.40;99.90
37528;DHT22;23372;52.050;4.810;2023-05-10T10:45:25;18.30;99.90
37528;DHT22;23372;52.050;4.810;2023-05-10T10:48:20;18.00;99.90
37528;DHT22;23372;52.050;4.810;2023-05-10T10:50:46;17.80;99.90
37528;DHT22;23372;52.050;4.810;2023-05-10T10:53:12;18.20;99.90
37528;DHT22;23372;52.050;4.810;2023-05-10T10:55:46;18.30;99.90
37528;DHT22;23372;52.050;4.810;2023-05-10T10:58:29;18.00;99.90
37528;DHT22;23372;52.050;4.810;2023-05-10T11:01:16;18.40;99.90
37528;DHT22;23372;52.050;4.810;2023-05-10T11:06:36;18.70;99.90
37528;DHT22;23372;52.050;4.810;2023-05-10T11:09:10;18.60;99.90
37528;DHT22;23372;52.050;4.810;2023-05-10T11:11:36;18.70;99.90
37528;DHT22;23372;52.050;4.810;2023-05-10T11:14:13;18.20;99.90
37528;DHT22;23372;52.050;4.810;2023-05-10T11:16:43;18.30;99.90
37528;DHT22;23372;52.050;4.810;2023-05-10T11:19:11;18.90;99.90
37528;DHT22;23372;52.050;4.810;2023-05-10T11:21:47;18.90;99.90
37528;DHT22;23372;52.050;4.810;2023-05-10T11:24:18;18.90;99.90
37528;DHT22;23372;52.050;4.810;2023-05-10T11:26:44;18.70;99.90
37528;DHT22;23372;52.050;4.810;2023-05-10T11:29:09;18.00;99.90
37528;DHT22;23372;52.050;4.810;2023-05-10T11:31:44;17.50;99.90
37528;DHT22;23372;52.050;4.810;2023-05-10T11:34:11;16.90;99.90
37528;DHT22;23372;52.050;4.810;2023-05-10T11:36:36;16.40;99.90
37528;DHT22;23372;52.050;4.810;2023-05-10T11:39:03;16.00;99.90
37528;DHT22;23372;52.050;4.810;2023-05-10T11:41:30;15.80;99.90
37528;DHT22;23372;52.050;4.810;2023-05-10T11:43:56;15.50;99.90
37528;DHT22;23372;52.050;4.810;2023-05-10T11:46:24;15.30;99.90
37528;DHT22;23372;52.050;4.810;2023-05-10T11:48:53;15.20;99.90
37528;DHT22;23372;52.050;4.810;2023-05-10T11:51:23;15.00;99.90
37528;DHT22;23372;52.050;4.810;2023-05-10T11:53:54;14.90;99.90
37528;DHT22;23372;52.050;4.810;2023-05-10T11:56:20;14.90;99.90
37528;DHT22;23372;52.050;4.810;2023-05-10T11:58:53;14.80;99.90
37528;DHT22;23372;52.050;4.810;2023-05-10T12:01:19;14.70;99.90
37528;DHT22;23372;52.050;4.810;2023-05-10T12:03:45;14.70;99.90
37528;DHT22;23372;52.050;4.810;2023-05-10T12:06:10;14.70;99.90
37528;DHT22;23372;52.050;4.810;2023-05-10T12:08:36;14.70;99.90
37528;DHT22;23372;52.050;4.810;2023-05-10T12:11:09;14.80;99.90
37528;DHT22;23372;52.050;4.810;2023-05-10T12:13:40;14.90;99.90
37528;DHT22;23372;52.050;4.810;2023-05-10T12:18:40;14.90;99.90
37528;DHT22;23372;52.050;4.810;2023-05-10T12:21:07;15.00;99.90
37528;DHT22;23372;52.050;4.810;2023-05-10T12:23:32;15.00;99.90
37528;DHT22;23372;52.050;4.810;2023-05-10T12:26:05;15.10;99.90
37528;DHT22;23372;52.050;4.810;2023-05-10T12:28:31;14.90;99.90
37528;DHT22;23372;52.050;4.810;2023-05-10T12:30:58;15.20;99.90
37528;DHT22;23372;52.050;4.810;2023-05-10T12:33:24;15.40;99.90
37528;DHT22;23372;52.050;4.810;2023-05-10T12:35:52;15.40;99.90
37528;DHT22;23372;52.050;4.810;2023-05-10T12:38:35;15.60;99.90
37528;DHT22;23372;52.050;4.810;2023-05-10T12:41:04;15.60;99.90
37528;DHT22;23372;52.050;4.810;2023-05-10T12:43:30;15.60;99.90
37528;DHT22;23372;52.050;4.810;2023-05-10T12:45:56;15.60;99.90
37528;DHT22;23372;52.050;4.810;2023-05-10T12:48:22;15.60;99.90
37528;DHT22;23372;52.050;4.810;2023-05-10T12:50:48;15.60;99.90
37528;DHT22;23372;52.050;4.810;2023-05-10T12:53:14;15.70;99.90
37528;DHT22;23372;52.050;4.810;2023-05-10T12:55:41;15.70;99.90
37528;DHT22;23372;52.050;4.810;2023-05-10T12:58:07;15.80;99.90
37528;DHT22;23372;52.050;4.810;2023-05-10T13:00:32;16.00;99.90
37528;DHT22;23372;52.050;4.810;2023-05-10T13:02:58;16.10;99.90
37528;DHT22;23372;52.050;4.810;2023-05-10T13:05:24;16.30;99.90
37528;DHT22;23372;52.050;4.810;2023-05-10T13:07:49;16.70;99.90
37528;DHT22;23372;52.050;4.810;2023-05-10T13:10:15;16.80;99.90
37528;DHT22;23372;52.050;4.810;2023-05-10T13:12:41;16.90;99.90
37528;DHT22;23372;52.050;4.810;2023-05-10T13:15:07;17.00;99.90
37528;DHT22;23372;52.050;4.810;2023-05-10T13:17:32;17.00;99.90
37528;DHT22;23372;52.050;4.810;2023-05-10T13:19:58;17.00;99.90
37528;DHT22;23372;52.050;4.810;2023-05-10T13:22:24;17.00;99.90
37528;DHT22;23372;52.050;4.810;2023-05-10T13:24:49;16.90;99.90
37528;DHT22;23372;52.050;4.810;2023-05-10T13:27:15;16.80;99.90
37528;DHT22;23372;52.050;4.810;2023-05-10T13:29:40;16.80;99.90
37528;DHT22;23372;52.050;4.810;2023-05-10T13:32:06;16.70;99.90
37528;DHT22;23372;52.050;4.810;2023-05-10T13:34:32;16.40;99.90
37528;DHT22;23372;52.050;4.810;2023-05-10T13:36:57;16.40;99.90
37528;DHT22;23372;52.050;4.810;2023-05-10T13:39:23;16.40;99.90
37528;DHT22;23372;52.050;4.810;2023-05-10T13:41:48;16.20;99.90
37528;DHT22;23372;52.050;4.810;2023-05-10T13:44:14;16.10;99.90
37528;DHT22;23372;52.050;4.810;2023-05-10T13:46:41;16.00;99.90
37528;DHT22;23372;52.050;4.810;2023-05-10T13:49:08;15.90;99.90
37528;DHT22;23372;52.050;4.810;2023-05-10T13:51:34;15.70;99.90
37528;DHT22;23372;52.050;4.810;2023-05-10T13:54:01;15.50;99.90
37528;DHT22;23372;52.050;4.810;2023-05-10T13:56:27;15.50;99.90
37528;DHT22;23372;52.050;4.810;2023-05-10T13:58:53;15.40;99.90
37528;DHT22;23372;52.050;4.810;2023-05-10T14:01:18;15.40;99.90
37528;DHT22;23372;52.050;4.810;2023-05-10T14:03:44;15.30;99.90
37528;DHT22;23372;52.050;4.810;2023-05-10T14:06:10;15.40;99.90
37528;DHT22;23372;52.050;4.810;2023-05-10T14:08:36;15.10;99.90
37528;DHT22;23372;52.050;4.810;2023-05-10T14:11:02;15.00;99.90
37528;DHT22;23372;52.050;4.810;2023-05-10T14:13:27;15.10;99.90
37528;DHT22;23372;52.050;4.810;2023-05-10T14:15:54;15.10;99.90
37528;DHT22;23372;52.050;4.810;2023-05-10T14:18:20;15.20;99.90
37528;DHT22;23372;52.050;4.810;2023-05-10T14:20:46;15.20;99.90
37528;DHT22;23372;52.050;4.810;2023-05-10T14:23:12;15.20;99.90
37528;DHT22;23372;52.050;4.810;2023-05-10T14:25:39;15.20;99.90
37528;DHT22;23372;52.050;4.810;2023-05-10T14:28:05;14.90;99.90
37528;DHT22;23372;52.050;4.810;2023-05-10T14:30:31;14.90;99.90
37528;DHT22;23372;52.050;4.810;2023-05-10T14:32:58;14.90;99.90
37528;DHT22;23372;52.050;4.810;2023-05-10T14:35:23;15.10;99.90
37528;DHT22;23372;52.050;4.810;2023-05-10T14:37:49;15.20;99.90
37528;DHT22;23372;52.050;4.810;2023-05-10T14:40:15;15.20;99.90
37528;DHT22;23372;52.050;4.810;2023-05-10T14:42:42;15.20;99.90
37528;DHT22;23372;52.050;4.810;2023-05-10T14:45:09;15.20;99.90
37528;DHT22;23372;52.050;4.810;2023-05-10T14:47:35;15.20;99.90
37528;DHT22;23372;52.050;4.810;2023-05-10T14:50:00;15.30;99.90
37528;DHT22;23372;52.050;4.810;2023-05-10T14:52:26;15.30;99.90
37528;DHT22;23372;52.050;4.810;2023-05-10T14:54:52;15.50;99.90
37528;DHT22;23372;52.050;4.810;2023-05-10T14:57:17;15.50;99.90
37528;DHT22;23372;52.050;4.810;2023-05-10T14:59:43;15.40;99.90
37528;DHT22;23372;52.050;4.810;2023-05-10T15:02:08;15.60;99.90
37528;DHT22;23372;52.050;4.810;2023-05-10T15:04:35;15.70;99.90
37528;DHT22;23372;52.050;4.810;2023-05-10T15:07:01;15.80;99.90
37528;DHT22;23372;52.050;4.810;2023-05-10T15:09:26;15.80;99.90
37528;DHT22;23372;52.050;4.810;2023-05-10T15:11:53;15.90;99.90
37528;DHT22;23372;52.050;4.810;2023-05-10T15:14:19;16.00;99.90
37528;DHT22;23372;52.050;4.810;2023-05-10T15:16:44;16.10;99.90
37528;DHT22;23372;52.050;4.810;2023-05-10T15:19:10;16.00;99.90
37528;DHT22;23372;52.050;4.810;2023-05-10T15:21:35;16.10;99.90
37528;DHT22;23372;52.050;4.810;2023-05-10T15:24:05;16.00;99.90
37528;DHT22;23372;52.050;4.810;2023-05-10T15:26:31;16.00;99.90
37528;DHT22;23372;52.050;4.810;2023-05-10T15:28:56;15.90;99.90
37528;DHT22;23372;52.050;4.810;2023-05-10T15:31:22;15.90;99.90
37528;DHT22;23372;52.050;4.810;2023-05-10T15:33:47;15.60;99.90
37528;DHT22;23372;52.050;4.810;2023-05-10T15:36:13;15.60;99.90
37528;DHT22;23372;52.050;4.810;2023-05-10T15:38:38;15.70;99.90
37528;DHT22;23372;52.050;4.810;2023-05-10T15:41:04;15.70;99.90
37528;DHT22;23372;52.050;4.810;2023-05-10T15:43:30;15.70;99.90
37528;DHT22;23372;52.050;4.810;2023-05-10T15:45:56;15.70;99.90
37528;DHT22;23372;52.050;4.810;2023-05-10T15:48:22;15.80;99.90
37528;DHT22;23372;52.050;4.810;2023-05-10T15:50:47;15.80;99.90
37528;DHT22;23372;52.050;4.810;2023-05-10T15:53:13;15.80;99.90